createdAt,value
2018-03-23T00:02:25.702Z,34.45
2018-03-23T00:04:52.120Z,28.05
2018-03-23T00:07:18.546Z,29.10
2018-03-23T00:09:45.714Z,36.30
2018-03-23T00:12:12.242Z,35.85
2018-03-23T00:14:38.686Z,29.75
2018-03-23T00:17:05.074Z,32.35
2018-03-23T00:19:32.225Z,25.62
2018-03-23T00:21:59.385Z,28.52
2018-03-23T00:24:25.806Z,29.80
2018-03-23T00:26:52.959Z,30.17
2018-03-23T00:29:20.081Z,22.37
2018-03-23T00:31:46.539Z,25.45
2018-03-23T00:34:13.669Z,26.12
2018-03-23T00:36:40.050Z,27.17
2018-03-23T00:39:06.621Z,25.30
2018-03-23T00:41:33.011Z,27.60
2018-03-23T00:43:59.423Z,27.37
2018-03-23T00:46:25.815Z,28.50
2018-03-23T00:48:52.195Z,35.22
2018-03-23T00:51:18.604Z,22.35
2018-03-23T00:53:44.980Z,31.33
2018-03-23T00:56:11.373Z,27.27
2018-03-23T00:58:37.753Z,29.70
2018-03-23T01:01:04.190Z,27.45
2018-03-23T01:03:30.553Z,33.08
2018-03-23T01:05:57.018Z,37.75
2018-03-23T01:08:23.412Z,34.50
2018-03-23T01:10:50.574Z,35.83
2018-03-23T01:13:17.741Z,36.20
2018-03-23T01:15:44.242Z,38.13
2018-03-23T01:18:10.649Z,33.60
2018-03-23T01:20:37.086Z,29.08
2018-03-23T01:23:03.514Z,36.72
2018-03-23T01:25:29.929Z,29.08
2018-03-23T01:27:56.426Z,34.03
2018-03-23T01:30:22.789Z,35.28
2018-03-23T01:32:49.231Z,33.28
2018-03-23T01:35:15.580Z,28.90
2018-03-23T01:37:41.998Z,36.35
2018-03-23T01:40:08.380Z,36.70
2018-03-23T01:42:34.832Z,30.05
2018-03-23T01:45:01.214Z,37.85
2018-03-23T01:47:27.612Z,30.90
2018-03-23T01:49:54.011Z,32.78
2018-03-23T01:52:20.408Z,33.00
2018-03-23T01:54:46.795Z,33.85
2018-03-23T01:57:13.352Z,29.98
2018-03-23T01:59:40.334Z,31.02
2018-03-23T02:02:06.718Z,25.98
2018-03-23T02:04:33.156Z,26.20
2018-03-23T02:06:59.583Z,24.87
2018-03-23T02:09:25.993Z,35.65
2018-03-23T02:11:52.365Z,26.40
2018-03-23T02:14:18.757Z,33.42
2018-03-23T02:16:45.156Z,32.65
2018-03-23T02:19:11.541Z,34.90
2018-03-23T02:21:37.971Z,32.20
2018-03-23T02:24:04.350Z,30.65
2018-03-23T02:26:30.763Z,28.80
2018-03-23T02:28:57.142Z,41.08
2018-03-23T02:31:24.297Z,28.92
2018-03-23T02:33:50.700Z,30.80
2018-03-23T02:36:17.082Z,35.63
2018-03-23T02:38:43.531Z,30.90
2018-03-23T02:41:10.651Z,31.90
2018-03-23T02:43:37.043Z,30.65
2018-03-23T02:46:03.416Z,35.67
2018-03-23T02:48:29.868Z,38.47
2018-03-23T02:50:56.239Z,60.70
2018-03-23T02:53:22.641Z,34.35
2018-03-23T02:55:49.068Z,37.13
2018-03-23T02:58:15.439Z,33.47
2018-03-23T03:00:41.834Z,33.33
2018-03-23T03:03:08.270Z,33.97
2018-03-23T03:05:35.430Z,38.67
2018-03-23T03:08:01.890Z,30.85
2018-03-23T03:10:28.255Z,32.00
2018-03-23T03:12:54.648Z,31.58
2018-03-23T03:15:21.046Z,35.85
2018-03-23T03:17:48.185Z,26.95
2018-03-23T03:20:14.545Z,29.35
2018-03-23T03:22:40.945Z,38.42
2018-03-23T03:25:08.128Z,27.33
2018-03-23T03:27:34.523Z,37.55
2018-03-23T03:30:01.643Z,36.70
2018-03-23T03:32:28.009Z,34.80
2018-03-23T03:34:55.176Z,34.92
2018-03-23T03:37:21.546Z,29.02
2018-03-23T03:39:47.985Z,29.95
2018-03-23T03:42:14.359Z,27.42
2018-03-23T03:44:41.498Z,36.55
2018-03-23T03:47:08.611Z,30.62
2018-03-23T03:49:34.968Z,32.85
2018-03-23T03:52:01.379Z,33.47
2018-03-23T03:54:27.755Z,28.55
2018-03-23T03:56:54.188Z,33.20
2018-03-23T03:59:20.555Z,32.97
2018-03-23T04:01:46.988Z,35.97
2018-03-23T04:04:13.365Z,31.98
2018-03-23T04:06:40.518Z,26.25
2018-03-23T04:09:06.922Z,34.08
2018-03-23T04:11:33.333Z,27.00
2018-03-23T04:13:59.760Z,27.80
2018-03-23T04:16:26.118Z,33.42
2018-03-23T04:18:52.509Z,33.45
2018-03-23T04:21:18.871Z,30.30
2018-03-23T04:23:45.249Z,26.30
2018-03-23T04:26:11.692Z,29.98
2018-03-23T04:28:38.077Z,38.40
2018-03-23T04:31:05.237Z,29.80
2018-03-23T04:33:32.389Z,33.42
2018-03-23T04:35:59.542Z,34.90
2018-03-23T04:38:26.653Z,27.58
2018-03-23T04:40:53.064Z,35.88
2018-03-23T04:43:19.465Z,28.70
2018-03-23T04:45:45.891Z,28.67
2018-03-23T04:48:12.307Z,23.58
2018-03-23T04:50:39.425Z,28.20
2018-03-23T04:53:05.817Z,36.90
2018-03-23T04:55:32.172Z,33.90
2018-03-23T04:57:58.573Z,27.40
2018-03-23T05:00:24.979Z,32.33
2018-03-23T05:02:51.457Z,30.70
2018-03-23T05:05:17.843Z,30.85
2018-03-23T05:07:44.278Z,31.15
2018-03-23T05:10:10.675Z,33.58
2018-03-23T05:12:37.081Z,36.40
2018-03-23T05:15:03.568Z,37.58
2018-03-23T05:17:29.933Z,36.30
2018-03-23T05:19:56.382Z,29.40
2018-03-23T05:22:22.745Z,27.00
2018-03-23T05:24:49.211Z,34.45
2018-03-23T05:27:15.554Z,24.85
2018-03-23T05:29:41.934Z,30.95
2018-03-23T05:32:08.334Z,29.98
2018-03-23T05:34:34.737Z,30.42
2018-03-23T05:37:01.162Z,31.27
2018-03-23T05:39:27.633Z,36.90
2018-03-23T05:41:54.117Z,32.65
2018-03-23T05:44:20.484Z,25.42
2018-03-23T05:46:46.906Z,26.05
2018-03-23T05:49:13.270Z,27.70
2018-03-23T05:51:39.673Z,30.37
2018-03-23T05:54:06.097Z,39.47
2018-03-23T05:56:32.579Z,34.60
2018-03-23T05:58:58.945Z,27.98
2018-03-23T06:01:25.370Z,31.42
2018-03-23T06:03:51.784Z,27.02
2018-03-23T06:06:25.285Z,34.85
2018-03-23T06:08:51.715Z,34.22
2018-03-23T06:11:18.828Z,36.33
2018-03-23T06:13:45.274Z,31.35
2018-03-23T06:16:11.694Z,35.00
2018-03-23T06:18:38.089Z,31.98
2018-03-23T06:21:04.482Z,30.55
2018-03-23T06:23:30.993Z,33.45
2018-03-23T06:25:57.358Z,30.77
2018-03-23T06:28:23.714Z,33.55
2018-03-23T06:30:50.098Z,31.85
2018-03-23T06:33:17.250Z,26.45
2018-03-23T06:35:44.393Z,31.87
2018-03-23T06:38:11.498Z,29.10
2018-03-23T06:40:37.885Z,25.67
2018-03-23T06:43:05.089Z,29.08
2018-03-23T06:45:31.489Z,30.12
2018-03-23T06:47:57.883Z,30.08
2018-03-23T06:50:25.027Z,25.75
2018-03-23T06:52:52.155Z,27.40
2018-03-23T06:55:18.586Z,24.50
2018-03-23T06:57:44.966Z,29.35
2018-03-23T07:00:11.384Z,35.40
2018-03-23T07:02:38.540Z,29.30
2018-03-23T07:05:05.666Z,30.23
2018-03-23T07:07:32.085Z,25.37
2018-03-23T07:09:59.245Z,42.10
2018-03-23T07:12:25.655Z,37.75
2018-03-23T07:14:52.081Z,34.75
2018-03-23T07:17:18.447Z,27.60
2018-03-23T07:19:45.579Z,28.77
2018-03-23T07:22:11.984Z,28.10
2018-03-23T07:24:38.370Z,26.60
2018-03-23T07:27:04.771Z,36.63
2018-03-23T07:29:31.131Z,31.87
2018-03-23T07:31:58.273Z,34.33
2018-03-23T07:34:24.664Z,30.65
2018-03-23T07:36:51.126Z,29.80
2018-03-23T07:39:17.488Z,26.42
2018-03-23T07:41:43.955Z,25.37
2018-03-23T07:44:10.293Z,27.10
2018-03-23T07:46:36.753Z,23.38
2018-03-23T07:49:03.920Z,25.73
2018-03-23T07:51:30.310Z,27.30
2018-03-23T07:53:56.716Z,21.80
2018-03-23T07:56:23.154Z,21.35
2018-03-23T07:58:49.530Z,30.48
2018-03-23T08:01:15.963Z,22.10
2018-03-23T08:03:43.138Z,24.48
2018-03-23T08:06:09.558Z,24.92
2018-03-23T08:08:36.006Z,25.73
2018-03-23T08:11:09.331Z,26.55
2018-03-23T08:13:35.789Z,24.95
2018-03-23T08:16:02.197Z,24.65
2018-03-23T08:18:28.541Z,26.08
2018-03-23T08:20:55.871Z,23.10
2018-03-23T08:23:22.315Z,19.62
2018-03-23T08:25:48.710Z,20.65
2018-03-23T08:28:15.069Z,15.85
2018-03-23T08:30:41.485Z,17.73
2018-03-23T08:33:07.874Z,13.88
2018-03-23T08:35:34.284Z,18.10
2018-03-23T08:38:00.606Z,15.80
2018-03-23T08:40:27.046Z,19.05
2018-03-23T08:42:53.437Z,16.65
2018-03-23T08:45:19.864Z,14.43
2018-03-23T08:47:46.297Z,13.77
2018-03-23T08:50:12.686Z,13.68
2018-03-23T08:52:39.143Z,17.02
2018-03-23T08:55:05.557Z,8.95
2018-03-23T08:57:31.971Z,18.17
2018-03-23T08:59:59.100Z,14.10
2018-03-23T09:02:25.496Z,12.60
2018-03-23T09:04:51.862Z,14.15
2018-03-23T09:07:18.260Z,11.18
2018-03-23T09:09:44.626Z,13.05
2018-03-23T09:12:11.029Z,12.23
2018-03-23T09:14:37.413Z,11.45
2018-03-23T09:17:04.664Z,12.20
2018-03-23T09:19:31.010Z,10.02
2018-03-23T09:21:57.429Z,11.38
2018-03-23T09:24:23.859Z,10.40
2018-03-23T09:26:50.972Z,9.38
2018-03-23T09:29:17.371Z,11.50
2018-03-23T09:31:43.769Z,13.02
2018-03-23T09:34:10.158Z,8.95
2018-03-23T09:36:36.550Z,9.52
2018-03-23T09:39:02.986Z,10.75
2018-03-23T09:41:29.390Z,12.23
2018-03-23T09:43:55.811Z,10.70
2018-03-23T09:46:22.933Z,15.07
2018-03-23T09:48:49.304Z,10.02
2018-03-23T09:51:15.735Z,13.27
2018-03-23T09:53:42.965Z,11.98
2018-03-23T09:56:09.361Z,6.60
2018-03-23T09:58:35.737Z,6.55
2018-03-23T10:01:02.288Z,11.10
2018-03-23T10:03:28.681Z,11.60
2018-03-23T10:05:55.169Z,15.05
2018-03-23T10:08:21.564Z,8.00
2018-03-23T10:10:48.006Z,7.30
2018-03-23T10:13:14.485Z,8.07
2018-03-23T10:15:40.872Z,6.30
2018-03-23T10:18:07.306Z,8.68
2018-03-23T10:20:33.755Z,7.05
2018-03-23T10:23:00.167Z,10.57
2018-03-23T10:25:26.604Z,7.90
2018-03-23T10:27:52.975Z,10.18
2018-03-23T10:30:19.389Z,9.85
2018-03-23T10:32:45.975Z,9.85
2018-03-23T10:35:12.377Z,10.25
2018-03-23T10:37:38.869Z,9.73
2018-03-23T10:40:05.384Z,10.65
2018-03-23T10:42:31.780Z,11.80
2018-03-23T10:44:58.179Z,10.43
2018-03-23T10:47:24.637Z,12.10
2018-03-23T10:49:51.049Z,7.00
2018-03-23T10:52:17.485Z,11.98
2018-03-23T10:54:43.997Z,10.88
2018-03-23T10:57:10.450Z,8.45
2018-03-23T10:59:37.639Z,9.30
2018-03-23T11:02:06.988Z,11.57
2018-03-23T11:04:33.380Z,12.30
2018-03-23T11:07:00.529Z,10.88
2018-03-23T11:09:27.658Z,13.65
2018-03-23T11:11:54.018Z,12.10
2018-03-23T11:14:21.193Z,10.60
2018-03-23T11:16:47.610Z,18.75
2018-03-23T11:19:14.032Z,11.25
2018-03-23T11:21:40.414Z,14.90
2018-03-23T11:24:07.634Z,19.62
2018-03-23T11:26:34.087Z,16.12
2018-03-23T11:29:00.653Z,10.85
2018-03-23T11:31:27.049Z,13.32
2018-03-23T11:33:53.474Z,13.70
2018-03-23T11:36:19.908Z,10.55
2018-03-23T11:38:46.405Z,12.48
2018-03-23T11:41:12.827Z,10.32
2018-03-23T11:43:39.243Z,6.85
2018-03-23T11:46:05.729Z,7.87
2018-03-23T11:48:32.201Z,8.95
2018-03-23T11:50:58.601Z,13.95
2018-03-23T11:53:25.118Z,12.63
2018-03-23T11:55:52.360Z,9.35
2018-03-23T11:58:18.722Z,8.52
2018-03-23T12:00:45.122Z,6.68
2018-03-23T12:03:11.515Z,6.78
2018-03-23T12:05:38.651Z,6.93
2018-03-23T12:08:05.116Z,7.00
2018-03-23T12:10:31.491Z,4.75
2018-03-23T12:12:59.610Z,6.78
2018-03-23T12:15:29.039Z,6.55
2018-03-23T12:17:55.434Z,9.82
2018-03-23T12:20:21.818Z,8.10
2018-03-23T12:22:48.224Z,6.75
2018-03-23T12:25:14.653Z,6.97
2018-03-23T12:27:41.802Z,9.25
2018-03-23T12:30:08.215Z,11.30
2018-03-23T12:32:35.400Z,9.30
2018-03-23T12:35:01.828Z,7.15
2018-03-23T12:37:28.253Z,7.12
2018-03-23T12:39:54.767Z,7.32
2018-03-23T12:42:21.882Z,8.27
2018-03-23T12:44:48.297Z,9.68
2018-03-23T12:47:14.713Z,15.90
2018-03-23T12:49:41.169Z,9.63
2018-03-23T12:52:07.571Z,9.90
2018-03-23T12:54:34.884Z,16.60
2018-03-23T12:57:02.038Z,11.90
2018-03-23T12:59:28.418Z,16.87
2018-03-23T13:01:55.621Z,17.02
2018-03-23T13:04:22.748Z,16.10
2018-03-23T13:06:49.173Z,18.02
2018-03-23T13:09:15.616Z,14.82
2018-03-23T13:11:42.755Z,12.10
2018-03-23T13:14:09.198Z,13.48
2018-03-23T13:16:35.556Z,14.55
2018-03-23T13:19:02.027Z,14.15
2018-03-23T13:21:28.405Z,10.73
2018-03-23T13:23:54.813Z,14.40
2018-03-23T13:26:21.228Z,9.00
2018-03-23T13:28:47.595Z,11.57
2018-03-23T13:31:13.995Z,10.63
2018-03-23T13:33:40.374Z,13.82
2018-03-23T13:36:06.820Z,13.90
2018-03-23T13:38:33.238Z,11.55
2018-03-23T13:40:59.648Z,13.35
2018-03-23T13:43:27.080Z,14.25
2018-03-23T13:45:53.517Z,13.70
2018-03-23T13:48:20.628Z,22.00
2018-03-23T13:50:47.074Z,19.75
2018-03-23T13:53:13.491Z,13.52
2018-03-23T13:55:39.904Z,18.83
2018-03-23T13:58:06.354Z,19.27
2018-03-23T14:00:38.777Z,12.80
2018-03-23T14:03:05.922Z,13.13
2018-03-23T14:05:33.075Z,17.58
2018-03-23T14:08:00.267Z,21.70
2018-03-23T14:10:26.648Z,19.10
2018-03-23T14:12:53.817Z,13.35
2018-03-23T14:15:20.253Z,18.15
2018-03-23T14:17:46.629Z,18.37
2018-03-23T14:20:13.014Z,18.12
2018-03-23T14:22:39.434Z,17.75
2018-03-23T14:25:05.899Z,16.70
2018-03-23T14:27:32.388Z,14.20
2018-03-23T14:29:59.525Z,16.70
2018-03-23T14:32:25.917Z,13.93
2018-03-23T14:34:52.366Z,14.10
2018-03-23T14:37:18.761Z,19.15
2018-03-23T14:39:45.183Z,15.93
2018-03-23T14:42:11.551Z,17.55
2018-03-23T14:44:37.953Z,17.40
2018-03-23T14:47:04.391Z,15.05
2018-03-23T14:49:30.830Z,13.75
2018-03-23T14:51:57.217Z,15.98
2018-03-23T14:54:24.354Z,19.83
2018-03-23T14:56:50.773Z,12.45
2018-03-23T14:59:17.199Z,13.77
2018-03-23T15:01:43.635Z,12.82
2018-03-23T15:04:10.097Z,14.32
2018-03-23T15:06:37.237Z,21.17
2018-03-23T15:09:04.511Z,16.95
2018-03-23T15:11:30.945Z,16.00
2018-03-23T15:14:14.711Z,18.75
2018-03-23T15:16:41.095Z,19.35
2018-03-23T15:19:08.302Z,18.10
2018-03-23T15:21:34.705Z,20.02
2018-03-23T15:24:01.133Z,13.85
2018-03-23T15:26:27.510Z,19.65
2018-03-23T15:28:53.953Z,22.02
2018-03-23T15:31:20.362Z,14.18
2018-03-23T15:33:46.768Z,19.60
2018-03-23T15:36:13.239Z,18.90
2018-03-23T15:38:39.688Z,18.77
2018-03-23T15:41:06.158Z,21.48
2018-03-23T15:43:32.638Z,18.42
2018-03-23T15:45:59.085Z,19.58
2018-03-23T15:48:25.498Z,18.12
2018-03-23T15:50:51.919Z,22.45
2018-03-23T15:53:18.319Z,16.73
2018-03-23T15:55:44.706Z,25.27
2018-03-23T15:58:11.894Z,21.40
2018-03-23T16:00:38.302Z,19.87
2018-03-23T16:03:05.458Z,18.10
2018-03-23T16:05:31.860Z,20.45
2018-03-23T16:07:58.376Z,22.62
2018-03-23T16:10:24.804Z,21.25
2018-03-23T16:12:51.239Z,19.58
2018-03-23T16:15:17.894Z,22.60
2018-03-23T16:17:45.069Z,22.83
2018-03-23T16:20:11.490Z,23.77
2018-03-23T16:22:38.666Z,14.60
2018-03-23T16:25:05.070Z,18.90
2018-03-23T16:27:32.331Z,16.10
2018-03-23T16:29:58.768Z,22.20
2018-03-23T16:32:25.163Z,18.70
2018-03-23T16:34:51.590Z,21.00
2018-03-23T16:37:17.967Z,21.10
2018-03-23T16:39:44.382Z,19.02
2018-03-23T16:42:10.856Z,20.75
2018-03-23T16:44:37.449Z,18.83
2018-03-23T16:47:03.832Z,24.35
2018-03-23T16:49:30.405Z,18.73
2018-03-23T16:51:56.844Z,20.42
2018-03-23T16:54:23.324Z,18.48
2018-03-23T16:56:49.750Z,23.85
2018-03-23T16:59:16.212Z,34.70
2018-03-23T17:01:42.689Z,23.50
2018-03-23T17:04:09.121Z,24.23
2018-03-23T17:06:35.848Z,25.55
2018-03-23T17:09:02.452Z,30.10
2018-03-23T17:11:29.703Z,23.08
2018-03-23T17:13:56.198Z,26.70
2018-03-23T17:16:29.597Z,27.58
2018-03-23T17:18:56.002Z,28.30
2018-03-23T17:21:22.451Z,29.65
2018-03-23T17:23:48.862Z,20.75
2018-03-23T17:26:15.292Z,26.85
2018-03-23T17:28:41.767Z,31.95
2018-03-23T17:31:08.203Z,27.17
2018-03-23T17:33:34.730Z,38.13
2018-03-23T17:36:01.147Z,29.02
2018-03-23T17:38:27.534Z,30.70
2018-03-23T17:40:54.739Z,32.25
2018-03-23T17:43:21.126Z,31.60
2018-03-23T17:45:48.310Z,30.85
2018-03-23T17:48:14.714Z,35.72
2018-03-23T17:50:41.117Z,28.98
2018-03-23T17:53:07.498Z,26.90
2018-03-23T17:55:33.932Z,30.80
2018-03-23T17:58:00.358Z,42.13
2018-03-23T18:00:26.838Z,45.10
2018-03-23T18:02:53.257Z,32.25
2018-03-23T18:05:19.698Z,35.72
2018-03-23T18:07:46.109Z,39.50
2018-03-23T18:10:12.613Z,36.28
2018-03-23T18:12:39.027Z,39.40
2018-03-23T18:15:06.237Z,44.03
2018-03-23T18:17:32.712Z,42.20
2018-03-23T18:19:59.177Z,49.88
2018-03-23T18:22:25.607Z,38.08
2018-03-23T18:24:52.075Z,39.63
2018-03-23T18:27:19.375Z,32.67
2018-03-23T18:29:45.765Z,36.53
2018-03-23T18:32:12.201Z,38.67
2018-03-23T18:34:39.322Z,27.70
2018-03-23T18:37:05.717Z,34.95
2018-03-23T18:39:32.118Z,40.70
2018-03-23T18:41:58.577Z,36.53
2018-03-23T18:44:25.111Z,35.20
2018-03-23T18:46:51.557Z,47.15
2018-03-23T18:49:18.743Z,36.95
2018-03-23T18:51:45.133Z,35.40
2018-03-23T18:54:11.601Z,32.90
2018-03-23T18:56:37.966Z,32.17
2018-03-23T18:59:05.140Z,40.75
2018-03-23T19:01:31.668Z,33.78
2018-03-23T19:03:58.085Z,34.13
2018-03-23T19:06:24.467Z,29.48
2018-03-23T19:08:50.896Z,32.90
2018-03-23T19:11:17.316Z,34.70
2018-03-23T19:13:43.748Z,35.97
2018-03-23T19:16:10.234Z,35.03
2018-03-23T19:18:36.639Z,46.37
2018-03-23T19:21:03.112Z,39.30
2018-03-23T19:23:29.540Z,42.03
2018-03-23T19:25:56.006Z,41.55
2018-03-23T19:28:22.483Z,37.35
2018-03-23T19:30:49.659Z,37.95
2018-03-23T19:33:16.105Z,48.13
2018-03-23T19:35:42.598Z,37.95
2018-03-23T19:38:09.732Z,39.22
2018-03-23T19:40:36.214Z,35.42
2018-03-23T19:43:02.766Z,36.53
2018-03-23T19:45:29.187Z,32.15
2018-03-23T19:47:55.590Z,36.35
2018-03-23T19:50:22.735Z,37.40
2018-03-23T19:52:49.154Z,40.05
2018-03-23T19:55:16.330Z,39.78
2018-03-23T19:57:43.578Z,38.70
2018-03-23T20:00:10.105Z,37.97
2018-03-23T20:02:36.567Z,35.13
2018-03-23T20:05:03.047Z,33.53
2018-03-23T20:07:29.525Z,32.50
2018-03-23T20:09:55.966Z,41.88
2018-03-23T20:12:22.369Z,42.33
2018-03-23T20:14:49.030Z,38.53
2018-03-23T20:17:15.523Z,41.45
2018-03-23T20:19:42.732Z,42.70
2018-03-23T20:22:09.117Z,40.72
2018-03-23T20:24:35.687Z,40.20
2018-03-23T20:27:02.228Z,39.47
2018-03-23T20:29:28.705Z,41.85
2018-03-23T20:32:01.263Z,31.30
2018-03-23T20:34:27.683Z,36.60
2018-03-23T20:36:54.170Z,41.28
2018-03-23T20:39:20.629Z,39.85
2018-03-23T20:41:47.107Z,41.60
2018-03-23T20:44:14.341Z,46.67
2018-03-23T20:46:40.779Z,41.50
2018-03-23T20:49:07.168Z,54.55
2018-03-23T20:51:34.458Z,39.80
2018-03-23T20:54:00.916Z,35.50
2018-03-23T20:56:28.091Z,36.47
2018-03-23T20:58:54.534Z,35.63
2018-03-23T21:01:21.685Z,48.55
2018-03-23T21:03:48.846Z,41.60
2018-03-23T21:06:15.273Z,39.55
2018-03-23T21:08:41.801Z,39.78
2018-03-23T21:11:08.240Z,41.33
2018-03-23T21:13:34.666Z,45.65
2018-03-23T21:16:01.861Z,44.42
2018-03-23T21:18:28.315Z,39.47
2018-03-23T21:20:54.726Z,48.90
2018-03-23T21:23:21.882Z,43.13
2018-03-23T21:25:48.383Z,36.97
2018-03-23T21:28:15.964Z,57.25
2018-03-23T21:30:42.516Z,39.13
2018-03-23T21:33:08.970Z,38.53
2018-03-23T21:35:35.450Z,46.28
2018-03-23T21:38:01.922Z,39.25
2018-03-23T21:40:28.378Z,45.08
2018-03-23T21:42:54.814Z,44.15
2018-03-23T21:45:21.279Z,47.58
2018-03-23T21:47:47.816Z,46.47
2018-03-23T21:50:15.075Z,41.90
2018-03-23T21:52:42.235Z,44.38
2018-03-23T21:55:08.688Z,55.78
2018-03-23T21:57:35.160Z,46.25
2018-03-23T22:00:01.588Z,36.90
2018-03-23T22:02:28.060Z,38.33
2018-03-23T22:04:55.196Z,37.28
2018-03-23T22:07:22.430Z,42.17
2018-03-23T22:09:48.869Z,43.95
2018-03-23T22:12:15.375Z,39.63
2018-03-23T22:14:41.876Z,35.80
2018-03-23T22:17:08.339Z,41.40
2018-03-23T22:19:34.775Z,41.20
2018-03-23T22:22:01.219Z,42.47
2018-03-23T22:24:27.680Z,48.70
2018-03-23T22:26:54.843Z,42.75
2018-03-23T22:29:21.315Z,40.20
2018-03-23T22:31:47.803Z,46.03
2018-03-23T22:34:15.089Z,46.83
2018-03-23T22:36:41.526Z,44.63
2018-03-23T22:39:08.021Z,44.75
2018-03-23T22:41:34.471Z,40.35
2018-03-23T22:44:01.024Z,44.70
2018-03-23T22:46:27.464Z,36.35
2018-03-23T22:48:53.876Z,39.13
2018-03-23T22:51:20.309Z,49.03
2018-03-23T22:53:46.736Z,45.22
2018-03-23T22:56:13.174Z,50.58
2018-03-23T22:58:39.627Z,49.92
2018-03-23T23:01:06.126Z,48.13
2018-03-23T23:03:32.535Z,50.17
2018-03-23T23:05:59.669Z,53.33
2018-03-23T23:08:26.305Z,50.47
2018-03-23T23:10:52.727Z,53.50
2018-03-23T23:13:19.226Z,54.22
2018-03-23T23:15:45.696Z,45.17
2018-03-23T23:18:12.127Z,45.17
2018-03-23T23:20:38.558Z,46.08
2018-03-23T23:23:04.990Z,48.58
2018-03-23T23:25:31.428Z,52.03
2018-03-23T23:27:58.639Z,55.58
2018-03-23T23:30:25.065Z,51.45
2018-03-23T23:32:51.523Z,36.28
2018-03-23T23:35:18.053Z,49.55
2018-03-23T23:37:44.442Z,50.47
2018-03-23T23:40:10.825Z,64.37
2018-03-23T23:42:37.260Z,67.93
2018-03-23T23:45:03.679Z,75.60
2018-03-23T23:47:30.100Z,69.00
2018-03-23T23:49:56.494Z,55.75
2018-03-23T23:52:22.939Z,55.45
2018-03-23T23:54:49.366Z,48.10
2018-03-23T23:57:15.779Z,50.78
2018-03-23T23:59:42.140Z,47.05
